createdAt,value
2019-01-22T00:03:47.013Z,99.99
2019-01-22T00:08:42.722Z,99.99
2019-01-22T00:13:38.162Z,99.99
2019-01-22T00:18:33.464Z,99.99
2019-01-22T00:23:29.029Z,99.99
2019-01-22T00:28:25.387Z,99.99
2019-01-22T00:33:20.553Z,99.99
2019-01-22T00:38:16.461Z,99.99
2019-01-22T00:43:11.680Z,99.99
2019-01-22T00:48:08.891Z,99.99
2019-01-22T00:53:09.908Z,99.99
2019-01-22T00:58:03.051Z,99.99
2019-01-22T01:02:58.340Z,99.99
2019-01-22T01:07:54.027Z,99.99
2019-01-22T01:12:50.627Z,99.99
2019-01-22T01:17:47.046Z,99.99
2019-01-22T01:22:42.423Z,99.99
2019-01-22T01:27:37.813Z,99.99
2019-01-22T01:32:33.040Z,99.99
2019-01-22T01:37:28.450Z,99.99
2019-01-22T01:42:23.974Z,99.99
2019-01-22T01:47:19.364Z,99.99
2019-01-22T01:52:15.871Z,99.99
2019-01-22T01:57:11.066Z,99.99
2019-01-22T02:02:06.508Z,99.99
2019-01-22T02:07:01.909Z,99.99
2019-01-22T02:11:57.285Z,99.99
2019-01-22T02:16:52.772Z,99.99
2019-01-22T02:21:48.515Z,99.99
2019-01-22T02:26:45.015Z,99.99
2019-01-22T02:31:41.016Z,99.99
2019-01-22T02:36:36.373Z,99.99
2019-01-22T02:41:31.891Z,99.99
2019-01-22T02:46:28.270Z,99.99
2019-01-22T02:51:23.341Z,99.99
2019-01-22T02:56:18.837Z,99.99
2019-01-22T03:01:15.344Z,99.99
2019-01-22T03:06:10.443Z,99.99
2019-01-22T03:11:06.588Z,99.99
2019-01-22T03:16:02.188Z,99.99
2019-01-22T03:20:57.610Z,99.99
2019-01-22T03:25:52.972Z,99.99
2019-01-22T03:30:48.437Z,99.99
2019-01-22T03:35:43.946Z,99.99
2019-01-22T03:40:39.465Z,99.99
2019-01-22T03:45:36.143Z,99.99
2019-01-22T03:50:31.414Z,99.99
2019-01-22T03:55:26.737Z,99.99
2019-01-22T04:00:22.184Z,99.99
2019-01-22T04:05:17.786Z,99.99
2019-01-22T04:10:13.179Z,99.99
2019-01-22T04:15:08.585Z,99.99
2019-01-22T04:20:04.244Z,99.99
2019-01-22T04:24:59.801Z,99.99
2019-01-22T04:29:56.656Z,99.99
2019-01-22T04:34:52.078Z,99.99
2019-01-22T04:39:48.514Z,99.99
2019-01-22T04:44:44.896Z,99.99
2019-01-22T04:49:40.213Z,99.99
2019-01-22T04:54:36.520Z,99.99
2019-01-22T04:59:32.689Z,99.99
2019-01-22T05:04:28.812Z,99.99
2019-01-22T05:09:23.846Z,99.99
2019-01-22T05:14:20.333Z,99.99
2019-01-22T05:19:16.466Z,99.99
2019-01-22T05:24:17.642Z,99.99
2019-01-22T05:29:11.255Z,99.99
2019-01-22T05:34:07.515Z,99.99
2019-01-22T05:39:03.815Z,99.99
2019-01-22T05:43:58.894Z,99.99
2019-01-22T05:48:54.278Z,99.99
2019-01-22T05:53:49.634Z,99.99
2019-01-22T05:58:46.126Z,99.99
2019-01-22T06:03:42.365Z,99.99
2019-01-22T06:08:37.689Z,99.99
2019-01-22T06:13:33.434Z,99.99
2019-01-22T06:18:29.276Z,99.99
2019-01-22T06:23:24.699Z,99.99
2019-01-22T06:28:20.436Z,99.99
2019-01-22T06:33:15.961Z,99.99
2019-01-22T06:38:11.968Z,99.99
2019-01-22T06:43:09.079Z,99.99
2019-01-22T06:48:05.167Z,99.99
2019-01-22T06:53:00.441Z,99.99
2019-01-22T06:57:55.826Z,99.99
2019-01-22T07:02:51.367Z,99.99
2019-01-22T07:07:48.030Z,99.99
2019-01-22T07:12:43.048Z,99.99
2019-01-22T07:17:38.477Z,99.99
2019-01-22T07:22:33.881Z,99.99
2019-01-22T07:27:30.398Z,99.99
2019-01-22T07:32:25.567Z,99.99
2019-01-22T07:37:20.878Z,99.99
2019-01-22T07:42:16.241Z,99.99
2019-01-22T07:47:11.703Z,99.99
2019-01-22T07:52:07.353Z,99.99
2019-01-22T07:57:02.956Z,99.99
2019-01-22T08:01:59.372Z,99.99
2019-01-22T08:06:55.008Z,99.99
2019-01-22T08:11:51.432Z,99.99
2019-01-22T08:16:47.847Z,99.99
2019-01-22T08:21:43.544Z,99.99
2019-01-22T08:26:40.445Z,99.99
2019-01-22T08:31:35.728Z,99.99
2019-01-22T08:36:31.386Z,99.99
2019-01-22T08:41:27.736Z,99.99
2019-01-22T08:46:24.169Z,99.99
2019-01-22T08:51:19.437Z,99.99
2019-01-22T08:56:16.871Z,99.99
2019-01-22T09:01:13.197Z,99.99
2019-01-22T09:06:09.121Z,99.99
2019-01-22T09:11:06.731Z,99.99
2019-01-22T09:16:02.621Z,99.99
2019-01-22T09:20:58.375Z,99.99
2019-01-22T09:25:53.984Z,99.99
2019-01-22T09:30:50.468Z,99.99
2019-01-22T09:35:46.050Z,99.99
2019-01-22T09:40:41.765Z,99.99
2019-01-22T09:45:38.032Z,99.99
2019-01-22T09:50:34.347Z,99.99
2019-01-22T09:55:30.856Z,99.99
2019-01-22T10:00:27.418Z,99.99
2019-01-22T10:05:22.667Z,99.99
2019-01-22T10:10:19.286Z,99.99
2019-01-22T10:15:14.492Z,99.99
2019-01-22T10:20:10.137Z,99.99
2019-01-22T10:25:05.762Z,99.99
2019-01-22T10:30:01.492Z,99.99
2019-01-22T10:34:57.197Z,99.99
2019-01-22T10:39:53.861Z,99.99
2019-01-22T10:44:49.323Z,99.99
2019-01-22T10:49:45.838Z,99.99
2019-01-22T10:54:41.207Z,99.99
2019-01-22T10:59:36.982Z,99.99
2019-01-22T11:04:32.370Z,99.99
2019-01-22T11:09:28.047Z,99.99
2019-01-22T11:14:23.619Z,99.99
2019-01-22T11:19:19.373Z,99.99
2019-01-22T11:24:15.397Z,98.48
2019-01-22T11:29:11.006Z,97.34
2019-01-22T11:34:06.615Z,96.02
2019-01-22T11:39:02.422Z,94.51
2019-01-22T11:43:58.033Z,92.43
2019-01-22T11:48:53.858Z,90.63
2019-01-22T11:53:49.695Z,89.69
2019-01-22T11:58:45.388Z,88.78
2019-01-22T12:03:41.490Z,85.85
2019-01-22T12:08:37.330Z,85.57
2019-01-22T12:13:34.011Z,84.33
2019-01-22T12:18:29.371Z,83.58
2019-01-22T12:23:26.534Z,82.34
2019-01-22T12:28:21.901Z,80.45
2019-01-22T12:33:19.154Z,79.07
2019-01-22T12:38:15.482Z,79.17
2019-01-22T12:43:10.839Z,77.46
2019-01-22T12:48:06.548Z,79.26
2019-01-22T12:53:02.247Z,77.18
2019-01-22T12:57:58.890Z,77.46
2019-01-22T13:02:54.113Z,77.37
2019-01-22T13:07:49.719Z,77.18
2019-01-22T13:12:44.873Z,77.18
2019-01-22T13:17:41.407Z,76.61
2019-01-22T13:22:36.780Z,73.96
2019-01-22T13:27:32.416Z,73.30
2019-01-22T13:32:28.144Z,72.06
2019-01-22T13:37:23.770Z,68.94
2019-01-22T13:42:20.463Z,68.56
2019-01-22T13:47:15.814Z,68.94
2019-01-22T13:52:11.523Z,68.08
2019-01-22T13:57:08.147Z,67.05
2019-01-22T14:02:03.327Z,67.99
2019-01-22T14:06:58.767Z,67.14
2019-01-22T14:11:55.186Z,68.08
2019-01-22T14:16:50.626Z,68.46
2019-01-22T14:21:46.236Z,69.03
2019-01-22T14:26:42.031Z,69.66
2019-01-22T14:31:37.364Z,70.42
2019-01-22T14:36:32.835Z,71.36
2019-01-22T14:41:28.750Z,72.22
2019-01-22T14:46:24.264Z,72.60
2019-01-22T14:51:19.760Z,73.73
2019-01-22T14:56:15.171Z,74.30
2019-01-22T15:01:10.978Z,74.30
2019-01-22T15:06:07.510Z,72.97
2019-01-22T15:11:02.886Z,73.45
2019-01-22T15:15:59.403Z,74.58
2019-01-22T15:20:55.679Z,75.34
2019-01-22T15:25:51.176Z,75.43
2019-01-22T15:30:47.536Z,76.10
2019-01-22T15:35:42.825Z,76.19
2019-01-22T15:40:38.401Z,77.14
2019-01-22T15:45:35.052Z,77.76
2019-01-22T15:50:29.766Z,78.37
2019-01-22T15:55:26.418Z,78.61
2019-01-22T16:00:21.868Z,79.18
2019-01-22T16:05:17.350Z,79.37
2019-01-22T16:10:13.904Z,79.56
2019-01-22T16:15:09.926Z,80.41
2019-01-22T16:20:05.243Z,81.45
2019-01-22T16:25:00.648Z,82.02
2019-01-22T16:29:56.375Z,82.68
2019-01-22T16:34:51.784Z,83.34
2019-01-22T16:39:47.421Z,83.53
2019-01-22T16:44:43.044Z,84.01
2019-01-22T16:49:38.550Z,84.10
2019-01-22T16:54:35.327Z,84.10
2019-01-22T16:59:31.667Z,84.67
2019-01-22T17:04:26.874Z,85.33
2019-01-22T17:09:25.421Z,86.47
2019-01-22T17:14:21.598Z,86.56
2019-01-22T17:19:17.984Z,87.60
2019-01-22T17:24:12.949Z,87.32
2019-01-22T17:29:08.508Z,88.83
2019-01-22T17:34:04.003Z,89.40
2019-01-22T17:38:59.659Z,89.45
2019-01-22T17:43:55.045Z,90.20
2019-01-22T17:48:50.469Z,91.24
2019-01-22T17:53:46.046Z,91.24
2019-01-22T17:58:41.785Z,92.29
2019-01-22T18:03:37.299Z,93.13
2019-01-22T18:08:33.496Z,93.32
2019-01-22T18:13:28.920Z,94.27
2019-01-22T18:18:25.129Z,93.61
2019-01-22T18:23:20.562Z,93.51
2019-01-22T18:28:15.983Z,93.89
2019-01-22T18:33:11.578Z,94.56
2019-01-22T18:38:07.230Z,93.61
2019-01-22T18:43:02.914Z,94.08
2019-01-22T18:47:58.664Z,94.56
2019-01-22T18:52:54.148Z,95.03
2019-01-22T18:57:50.655Z,95.21
2019-01-22T19:02:45.954Z,95.97
2019-01-22T19:07:42.446Z,95.59
2019-01-22T19:12:37.639Z,96.07
2019-01-22T19:17:33.193Z,96.45
2019-01-22T19:22:28.558Z,96.64
2019-01-22T19:27:23.876Z,97.44
2019-01-22T19:32:19.312Z,97.63
2019-01-22T19:37:17.243Z,97.63
2019-01-22T19:42:12.271Z,98.95
2019-01-22T19:47:07.856Z,98.47
2019-01-22T19:52:03.277Z,99.33
2019-01-22T19:56:58.746Z,99.42
2019-01-22T20:01:55.244Z,99.71
2019-01-22T20:06:50.940Z,99.89
2019-01-22T20:11:46.336Z,99.99
2019-01-22T20:16:42.419Z,99.99
2019-01-22T20:21:38.483Z,99.99
2019-01-22T20:26:42.302Z,99.99
2019-01-22T20:31:36.718Z,99.99
2019-01-22T20:36:31.634Z,99.99
2019-01-22T20:41:27.939Z,99.99
2019-01-22T20:46:23.466Z,99.99
2019-01-22T20:51:19.028Z,99.99
2019-01-22T20:56:14.618Z,99.99
2019-01-22T21:01:10.019Z,99.99
2019-01-22T21:06:05.626Z,99.99
2019-01-22T21:11:01.064Z,99.99
2019-01-22T21:15:56.542Z,99.99
2019-01-22T21:20:53.059Z,99.99
2019-01-22T21:25:48.464Z,99.99
2019-01-22T21:30:43.974Z,99.99
2019-01-22T21:35:39.423Z,99.99
2019-01-22T21:40:34.892Z,99.99
2019-01-22T21:45:30.543Z,99.99
2019-01-22T21:50:26.653Z,99.99
2019-01-22T21:55:23.611Z,99.99
2019-01-22T22:00:19.801Z,99.99
2019-01-22T22:05:15.928Z,99.99
2019-01-22T22:10:11.302Z,99.99
2019-01-22T22:15:06.811Z,99.99
2019-01-22T22:20:02.759Z,99.99
2019-01-22T22:24:59.227Z,99.99
2019-01-22T22:29:54.383Z,99.99
2019-01-22T22:34:49.998Z,99.99
2019-01-22T22:39:46.492Z,99.99
2019-01-22T22:44:41.700Z,99.99
2019-01-22T22:49:38.529Z,99.99
2019-01-22T22:54:34.744Z,99.99
2019-01-22T22:59:29.961Z,99.99
2019-01-22T23:04:26.585Z,99.99
2019-01-22T23:09:21.895Z,99.99
2019-01-22T23:14:17.355Z,99.99
2019-01-22T23:19:13.803Z,99.99
2019-01-22T23:24:10.013Z,99.99
2019-01-22T23:29:06.042Z,99.99
2019-01-22T23:34:01.700Z,99.99
2019-01-22T23:38:58.944Z,99.99
2019-01-22T23:43:54.264Z,99.99
2019-01-22T23:48:49.615Z,99.99
2019-01-22T23:53:45.181Z,99.99
2019-01-22T23:58:40.807Z,99.99
